sensor_id;sensor_type;location;lat;lon;timestamp;temperature;humidity
19972;DHT22;10147;16.402;102.848;2023-03-11T00:02:14;22.80;99.90
19972;DHT22;10147;16.402;102.848;2023-03-11T00:04:49;22.90;99.90
19972;DHT22;10147;16.402;102.848;2023-03-11T00:07:20;23.00;99.90
19972;DHT22;10147;16.402;102.848;2023-03-11T00:09:50;23.20;99.90
19972;DHT22;10147;16.402;102.848;2023-03-11T00:12:21;23.40;99.90
19972;DHT22;10147;16.402;102.848;2023-03-11T00:14:51;23.40;99.90
19972;DHT22;10147;16.402;102.848;2023-03-11T00:17:25;23.50;99.90
19972;DHT22;10147;16.402;102.848;2023-03-11T00:19:56;23.50;99.90
19972;DHT22;10147;16.402;102.848;2023-03-11T00:22:26;23.60;99.90
19972;DHT22;10147;16.402;102.848;2023-03-11T00:24:56;23.50;99.90
19972;DHT22;10147;16.402;102.848;2023-03-11T00:27:27;23.60;99.90
19972;DHT22;10147;16.402;102.848;2023-03-11T00:29:58;23.60;99.90
19972;DHT22;10147;16.402;102.848;2023-03-11T00:32:28;23.70;99.90
19972;DHT22;10147;16.402;102.848;2023-03-11T00:35:01;23.70;99.90
19972;DHT22;10147;16.402;102.848;2023-03-11T00:37:31;23.80;99.90
19972;DHT22;10147;16.402;102.848;2023-03-11T00:40:02;23.90;99.90
19972;DHT22;10147;16.402;102.848;2023-03-11T00:42:38;23.90;99.90
19972;DHT22;10147;16.402;102.848;2023-03-11T00:45:11;23.90;99.90
19972;DHT22;10147;16.402;102.848;2023-03-11T00:47:42;24.00;99.90
19972;DHT22;10147;16.402;102.848;2023-03-11T00:50:20;24.10;99.90
19972;DHT22;10147;16.402;102.848;2023-03-11T00:52:51;24.20;99.90
19972;DHT22;10147;16.402;102.848;2023-03-11T00:55:24;24.20;99.90
19972;DHT22;10147;16.402;102.848;2023-03-11T00:58:00;24.30;99.90
19972;DHT22;10147;16.402;102.848;2023-03-11T01:00:44;24.30;99.90
19972;DHT22;10147;16.402;102.848;2023-03-11T01:03:16;24.40;99.90
19972;DHT22;10147;16.402;102.848;2023-03-11T01:05:46;24.30;99.90
19972;DHT22;10147;16.402;102.848;2023-03-11T01:08:17;24.40;99.90
19972;DHT22;10147;16.402;102.848;2023-03-11T01:10:47;24.50;99.90
19972;DHT22;10147;16.402;102.848;2023-03-11T01:33:30;25.00;99.90
19972;DHT22;10147;16.402;102.848;2023-03-11T01:36:02;25.10;99.90
19972;DHT22;10147;16.402;102.848;2023-03-11T01:38:32;25.20;99.90
19972;DHT22;10147;16.402;102.848;2023-03-11T01:41:04;25.30;99.90
19972;DHT22;10147;16.402;102.848;2023-03-11T01:46:35;25.60;99.90
19972;DHT22;10147;16.402;102.848;2023-03-11T01:49:11;25.70;99.90
19972;DHT22;10147;16.402;102.848;2023-03-11T01:51:45;25.70;99.90
19972;DHT22;10147;16.402;102.848;2023-03-11T01:54:32;25.80;99.90
19972;DHT22;10147;16.402;102.848;2023-03-11T01:57:08;25.80;99.90
19972;DHT22;10147;16.402;102.848;2023-03-11T01:59:46;25.90;99.90
19972;DHT22;10147;16.402;102.848;2023-03-11T02:02:24;26.00;99.90
19972;DHT22;10147;16.402;102.848;2023-03-11T02:04:59;26.30;99.90
19972;DHT22;10147;16.402;102.848;2023-03-11T02:07:34;26.40;99.90
19972;DHT22;10147;16.402;102.848;2023-03-11T02:10:14;26.40;99.90
19972;DHT22;10147;16.402;102.848;2023-03-11T02:12:47;26.50;99.90
19972;DHT22;10147;16.402;102.848;2023-03-11T02:15:27;26.50;99.90
19972;DHT22;10147;16.402;102.848;2023-03-11T02:18:02;26.70;99.90
19972;DHT22;10147;16.402;102.848;2023-03-11T02:21:16;26.80;99.90
19972;DHT22;10147;16.402;102.848;2023-03-11T02:24:12;26.80;99.90
19972;DHT22;10147;16.402;102.848;2023-03-11T02:27:05;26.90;99.90
19972;DHT22;10147;16.402;102.848;2023-03-11T02:29:37;27.20;99.90
19972;DHT22;10147;16.402;102.848;2023-03-11T02:32:09;27.30;99.90
19972;DHT22;10147;16.402;102.848;2023-03-11T02:34:44;27.30;99.90
19972;DHT22;10147;16.402;102.848;2023-03-11T02:37:16;27.40;99.90
19972;DHT22;10147;16.402;102.848;2023-03-11T02:39:54;27.50;99.90
19972;DHT22;10147;16.402;102.848;2023-03-11T02:42:28;27.40;99.90
19972;DHT22;10147;16.402;102.848;2023-03-11T02:45:09;27.30;99.90
19972;DHT22;10147;16.402;102.848;2023-03-11T02:47:40;27.60;99.90
19972;DHT22;10147;16.402;102.848;2023-03-11T02:50:14;27.80;99.90
19972;DHT22;10147;16.402;102.848;2023-03-11T02:52:48;28.00;99.90
19972;DHT22;10147;16.402;102.848;2023-03-11T02:55:22;28.20;99.90
19972;DHT22;10147;16.402;102.848;2023-03-11T02:57:54;28.30;99.90
19972;DHT22;10147;16.402;102.848;2023-03-11T03:00:35;28.20;99.90
19972;DHT22;10147;16.402;102.848;2023-03-11T03:03:07;28.50;99.90
19972;DHT22;10147;16.402;102.848;2023-03-11T03:08:10;28.60;99.90
19972;DHT22;10147;16.402;102.848;2023-03-11T10:21:12;34.50;97.40
19972;DHT22;10147;16.402;102.848;2023-03-11T10:27:12;34.40;97.40
19972;DHT22;10147;16.402;102.848;2023-03-11T10:30:05;34.40;97.60
19972;DHT22;10147;16.402;102.848;2023-03-11T10:32:57;34.10;98.10
19972;DHT22;10147;16.402;102.848;2023-03-11T10:35:42;34.10;99.00
19972;DHT22;10147;16.402;102.848;2023-03-11T10:38:36;34.10;99.90
19972;DHT22;10147;16.402;102.848;2023-03-11T10:44:12;33.70;99.90
19972;DHT22;10147;16.402;102.848;2023-03-11T10:46:43;33.50;99.90
19972;DHT22;10147;16.402;102.848;2023-03-11T10:49:18;33.50;99.90
19972;DHT22;10147;16.402;102.848;2023-03-11T10:51:51;33.50;99.90
19972;DHT22;10147;16.402;102.848;2023-03-11T10:54:37;33.40;99.90
19972;DHT22;10147;16.402;102.848;2023-03-11T10:57:35;33.20;99.90
19972;DHT22;10147;16.402;102.848;2023-03-11T11:00:08;33.10;99.90
19972;DHT22;10147;16.402;102.848;2023-03-11T11:02:54;33.10;99.90
19972;DHT22;10147;16.402;102.848;2023-03-11T11:05:29;33.10;99.90
19972;DHT22;10147;16.402;102.848;2023-03-11T11:08:14;32.90;99.90
19972;DHT22;10147;16.402;102.848;2023-03-11T11:10:52;32.90;99.90
19972;DHT22;10147;16.402;102.848;2023-03-11T11:13:30;32.60;99.90
19972;DHT22;10147;16.402;102.848;2023-03-11T11:16:18;32.70;99.90
19972;DHT22;10147;16.402;102.848;2023-03-11T11:18:53;32.50;99.90
19972;DHT22;10147;16.402;102.848;2023-03-11T11:21:39;32.30;99.90
19972;DHT22;10147;16.402;102.848;2023-03-11T11:24:24;32.10;99.90
19972;DHT22;10147;16.402;102.848;2023-03-11T11:27:27;32.10;99.90
19972;DHT22;10147;16.402;102.848;2023-03-11T11:30:17;32.00;99.90
19972;DHT22;10147;16.402;102.848;2023-03-11T11:32:47;32.10;99.90
19972;DHT22;10147;16.402;102.848;2023-03-11T11:35:24;31.80;99.90
19972;DHT22;10147;16.402;102.848;2023-03-11T11:38:00;31.60;99.90
19972;DHT22;10147;16.402;102.848;2023-03-11T11:40:31;31.60;99.90
19972;DHT22;10147;16.402;102.848;2023-03-11T11:43:16;31.50;99.90
19972;DHT22;10147;16.402;102.848;2023-03-11T11:45:56;31.50;99.90
19972;DHT22;10147;16.402;102.848;2023-03-11T11:51:37;31.50;99.90
19972;DHT22;10147;16.402;102.848;2023-03-11T11:57:20;31.40;99.90
19972;DHT22;10147;16.402;102.848;2023-03-11T11:59:51;31.40;99.90
19972;DHT22;10147;16.402;102.848;2023-03-11T12:05:44;31.30;99.90
19972;DHT22;10147;16.402;102.848;2023-03-11T12:08:32;31.40;99.90
19972;DHT22;10147;16.402;102.848;2023-03-11T12:11:11;31.30;99.90
19972;DHT22;10147;16.402;102.848;2023-03-11T12:14:11;31.20;99.90
19972;DHT22;10147;16.402;102.848;2023-03-11T12:16:58;31.20;99.90
19972;DHT22;10147;16.402;102.848;2023-03-11T12:19:42;31.10;99.90
19972;DHT22;10147;16.402;102.848;2023-03-11T12:22:39;31.10;99.90
19972;DHT22;10147;16.402;102.848;2023-03-11T12:25:36;31.30;99.90
19972;DHT22;10147;16.402;102.848;2023-03-11T12:28:23;31.40;99.90
19972;DHT22;10147;16.402;102.848;2023-03-11T12:30:59;31.40;99.90
19972;DHT22;10147;16.402;102.848;2023-03-11T12:33:43;31.50;99.90
19972;DHT22;10147;16.402;102.848;2023-03-11T12:39:30;31.30;99.90
19972;DHT22;10147;16.402;102.848;2023-03-11T12:42:19;31.30;99.90
19972;DHT22;10147;16.402;102.848;2023-03-11T12:44:50;31.20;99.90
19972;DHT22;10147;16.402;102.848;2023-03-11T12:47:25;31.20;99.90
19972;DHT22;10147;16.402;102.848;2023-03-11T12:53:16;31.00;99.90
19972;DHT22;10147;16.402;102.848;2023-03-11T13:11:42;30.50;99.90
19972;DHT22;10147;16.402;102.848;2023-03-11T13:14:34;30.00;99.90
19972;DHT22;10147;16.402;102.848;2023-03-11T13:17:24;30.00;99.90
19972;DHT22;10147;16.402;102.848;2023-03-11T13:19:57;30.20;99.90
19972;DHT22;10147;16.402;102.848;2023-03-11T13:23:07;30.30;99.90
19972;DHT22;10147;16.402;102.848;2023-03-11T13:41:00;30.10;99.90
19972;DHT22;10147;16.402;102.848;2023-03-11T13:43:32;30.10;99.90
19972;DHT22;10147;16.402;102.848;2023-03-11T13:46:10;30.10;99.90
19972;DHT22;10147;16.402;102.848;2023-03-11T13:48:47;29.80;99.90
19972;DHT22;10147;16.402;102.848;2023-03-11T13:51:44;29.60;99.90
19972;DHT22;10147;16.402;102.848;2023-03-11T13:57:27;29.80;99.90
19972;DHT22;10147;16.402;102.848;2023-03-11T14:00:14;29.80;99.90
19972;DHT22;10147;16.402;102.848;2023-03-11T14:02:51;29.40;99.90
19972;DHT22;10147;16.402;102.848;2023-03-11T14:05:28;29.20;99.90
19972;DHT22;10147;16.402;102.848;2023-03-11T14:11:26;28.70;99.90
19972;DHT22;10147;16.402;102.848;2023-03-11T14:13:57;28.50;99.90
19972;DHT22;10147;16.402;102.848;2023-03-11T14:16:37;28.50;99.90
19972;DHT22;10147;16.402;102.848;2023-03-11T14:19:19;28.50;99.90
19972;DHT22;10147;16.402;102.848;2023-03-11T14:21:51;28.90;99.90
19972;DHT22;10147;16.402;102.848;2023-03-11T14:24:29;29.10;99.90
19972;DHT22;10147;16.402;102.848;2023-03-11T14:27:06;29.10;99.90
19972;DHT22;10147;16.402;102.848;2023-03-11T14:29:39;29.10;99.90
19972;DHT22;10147;16.402;102.848;2023-03-11T14:32:32;29.00;99.90
19972;DHT22;10147;16.402;102.848;2023-03-11T14:35:18;28.50;99.90
19972;DHT22;10147;16.402;102.848;2023-03-11T14:37:49;28.30;99.90
19972;DHT22;10147;16.402;102.848;2023-03-11T14:40:34;28.20;99.90
19972;DHT22;10147;16.402;102.848;2023-03-11T14:43:11;28.30;99.90
19972;DHT22;10147;16.402;102.848;2023-03-11T14:45:42;28.50;99.90
19972;DHT22;10147;16.402;102.848;2023-03-11T14:48:36;28.70;99.90
19972;DHT22;10147;16.402;102.848;2023-03-11T14:51:26;28.60;99.90
19972;DHT22;10147;16.402;102.848;2023-03-11T14:54:07;28.70;99.90
19972;DHT22;10147;16.402;102.848;2023-03-11T14:56:48;28.80;99.90
19972;DHT22;10147;16.402;102.848;2023-03-11T14:59:25;28.40;99.90
19972;DHT22;10147;16.402;102.848;2023-03-11T15:02:11;28.50;99.90
19972;DHT22;10147;16.402;102.848;2023-03-11T15:04:49;28.50;99.90
19972;DHT22;10147;16.402;102.848;2023-03-11T15:07:21;28.60;99.90
19972;DHT22;10147;16.402;102.848;2023-03-11T15:09:51;28.70;99.90
19972;DHT22;10147;16.402;102.848;2023-03-11T15:12:41;28.70;99.90
19972;DHT22;10147;16.402;102.848;2023-03-11T15:15:26;28.60;99.90
19972;DHT22;10147;16.402;102.848;2023-03-11T15:17:58;28.50;99.90
19972;DHT22;10147;16.402;102.848;2023-03-11T15:20:33;28.50;99.90
19972;DHT22;10147;16.402;102.848;2023-03-11T15:23:05;28.40;99.90
19972;DHT22;10147;16.402;102.848;2023-03-11T15:25:37;28.30;99.90
19972;DHT22;10147;16.402;102.848;2023-03-11T15:28:30;28.40;99.90
19972;DHT22;10147;16.402;102.848;2023-03-11T15:31:29;28.30;99.90
19972;DHT22;10147;16.402;102.848;2023-03-11T15:34:31;27.80;99.90
19972;DHT22;10147;16.402;102.848;2023-03-11T15:37:17;28.10;99.90
19972;DHT22;10147;16.402;102.848;2023-03-11T15:39:49;28.20;99.90
19972;DHT22;10147;16.402;102.848;2023-03-11T15:42:25;28.20;99.90
19972;DHT22;10147;16.402;102.848;2023-03-11T15:45:10;28.30;99.90
19972;DHT22;10147;16.402;102.848;2023-03-11T15:47:42;28.10;99.90
19972;DHT22;10147;16.402;102.848;2023-03-11T15:50:17;27.90;99.90
19972;DHT22;10147;16.402;102.848;2023-03-11T15:52:54;27.50;99.90
19972;DHT22;10147;16.402;102.848;2023-03-11T15:55:26;27.00;99.90
19972;DHT22;10147;16.402;102.848;2023-03-11T15:58:04;26.80;99.90
19972;DHT22;10147;16.402;102.848;2023-03-11T16:00:36;27.00;99.90
19972;DHT22;10147;16.402;102.848;2023-03-11T16:03:06;27.00;99.90
19972;DHT22;10147;16.402;102.848;2023-03-11T16:05:37;26.80;99.90
19972;DHT22;10147;16.402;102.848;2023-03-11T16:08:08;26.80;99.90
19972;DHT22;10147;16.402;102.848;2023-03-11T16:10:39;26.70;99.90
19972;DHT22;10147;16.402;102.848;2023-03-11T16:13:12;26.60;99.90
19972;DHT22;10147;16.402;102.848;2023-03-11T16:15:43;26.70;99.90
19972;DHT22;10147;16.402;102.848;2023-03-11T16:18:16;26.70;99.90
19972;DHT22;10147;16.402;102.848;2023-03-11T16:20:52;26.60;99.90
19972;DHT22;10147;16.402;102.848;2023-03-11T16:23:26;26.70;99.90
19972;DHT22;10147;16.402;102.848;2023-03-11T16:26:10;26.80;99.90
19972;DHT22;10147;16.402;102.848;2023-03-11T16:28:44;27.20;99.90
19972;DHT22;10147;16.402;102.848;2023-03-11T16:31:16;27.40;99.90
19972;DHT22;10147;16.402;102.848;2023-03-11T16:33:46;27.50;99.90
19972;DHT22;10147;16.402;102.848;2023-03-11T16:36:16;27.50;99.90
19972;DHT22;10147;16.402;102.848;2023-03-11T16:38:49;27.40;99.90
19972;DHT22;10147;16.402;102.848;2023-03-11T16:41:19;27.40;99.90
19972;DHT22;10147;16.402;102.848;2023-03-11T16:43:52;27.40;99.90
19972;DHT22;10147;16.402;102.848;2023-03-11T16:46:22;27.30;99.90
19972;DHT22;10147;16.402;102.848;2023-03-11T16:48:53;27.20;99.90
19972;DHT22;10147;16.402;102.848;2023-03-11T16:51:26;27.10;99.90
19972;DHT22;10147;16.402;102.848;2023-03-11T16:53:57;27.20;99.90
19972;DHT22;10147;16.402;102.848;2023-03-11T16:56:27;27.30;99.90
19972;DHT22;10147;16.402;102.848;2023-03-11T16:58:58;27.20;99.90
19972;DHT22;10147;16.402;102.848;2023-03-11T17:01:32;27.20;99.90
19972;DHT22;10147;16.402;102.848;2023-03-11T17:04:07;27.20;99.90
19972;DHT22;10147;16.402;102.848;2023-03-11T17:06:37;27.20;99.90
19972;DHT22;10147;16.402;102.848;2023-03-11T17:09:09;27.20;99.90
19972;DHT22;10147;16.402;102.848;2023-03-11T17:11:39;27.10;99.90
19972;DHT22;10147;16.402;102.848;2023-03-11T17:14:10;27.00;99.90
19972;DHT22;10147;16.402;102.848;2023-03-11T17:16:44;27.00;99.90
19972;DHT22;10147;16.402;102.848;2023-03-11T17:19:15;27.10;99.90
19972;DHT22;10147;16.402;102.848;2023-03-11T17:21:49;27.00;99.90
19972;DHT22;10147;16.402;102.848;2023-03-11T17:24:20;27.00;99.90
19972;DHT22;10147;16.402;102.848;2023-03-11T17:26:50;27.00;99.90
19972;DHT22;10147;16.402;102.848;2023-03-11T17:29:22;27.10;99.90
19972;DHT22;10147;16.402;102.848;2023-03-11T17:31:53;27.00;99.90
19972;DHT22;10147;16.402;102.848;2023-03-11T17:34:23;26.90;99.90
19972;DHT22;10147;16.402;102.848;2023-03-11T17:36:54;26.70;99.90
19972;DHT22;10147;16.402;102.848;2023-03-11T17:39:25;26.50;99.90
19972;DHT22;10147;16.402;102.848;2023-03-11T17:41:55;26.40;99.90
19972;DHT22;10147;16.402;102.848;2023-03-11T17:44:26;26.30;99.90
19972;DHT22;10147;16.402;102.848;2023-03-11T17:47:11;26.00;99.90
19972;DHT22;10147;16.402;102.848;2023-03-11T17:49:41;25.90;99.90
19972;DHT22;10147;16.402;102.848;2023-03-11T17:52:13;26.10;99.90
19972;DHT22;10147;16.402;102.848;2023-03-11T17:54:52;26.20;99.90
19972;DHT22;10147;16.402;102.848;2023-03-11T17:57:25;26.50;99.90
19972;DHT22;10147;16.402;102.848;2023-03-11T17:59:55;26.60;99.90
19972;DHT22;10147;16.402;102.848;2023-03-11T18:02:31;26.60;99.90
19972;DHT22;10147;16.402;102.848;2023-03-11T18:05:01;26.50;99.90
19972;DHT22;10147;16.402;102.848;2023-03-11T18:07:36;26.70;99.90
19972;DHT22;10147;16.402;102.848;2023-03-11T18:10:09;26.60;99.90
19972;DHT22;10147;16.402;102.848;2023-03-11T18:12:43;26.30;99.90
19972;DHT22;10147;16.402;102.848;2023-03-11T18:15:14;26.10;99.90
19972;DHT22;10147;16.402;102.848;2023-03-11T18:17:48;26.20;99.90
19972;DHT22;10147;16.402;102.848;2023-03-11T18:20:18;26.20;99.90
19972;DHT22;10147;16.402;102.848;2023-03-11T18:22:49;26.20;99.90
19972;DHT22;10147;16.402;102.848;2023-03-11T18:25:19;25.80;99.90
19972;DHT22;10147;16.402;102.848;2023-03-11T18:27:50;26.00;99.90
19972;DHT22;10147;16.402;102.848;2023-03-11T18:30:21;25.90;99.90
19972;DHT22;10147;16.402;102.848;2023-03-11T18:32:52;26.10;99.90
19972;DHT22;10147;16.402;102.848;2023-03-11T18:35:23;26.10;99.90
19972;DHT22;10147;16.402;102.848;2023-03-11T18:37:56;26.10;99.90
19972;DHT22;10147;16.402;102.848;2023-03-11T18:40:26;26.00;99.90
19972;DHT22;10147;16.402;102.848;2023-03-11T18:42:57;26.00;99.90
19972;DHT22;10147;16.402;102.848;2023-03-11T18:45:28;25.90;99.90
19972;DHT22;10147;16.402;102.848;2023-03-11T18:47:58;25.90;99.90
19972;DHT22;10147;16.402;102.848;2023-03-11T18:50:28;25.90;99.90
19972;DHT22;10147;16.402;102.848;2023-03-11T18:52:58;25.80;99.90
19972;DHT22;10147;16.402;102.848;2023-03-11T18:55:29;25.80;99.90
19972;DHT22;10147;16.402;102.848;2023-03-11T18:57:59;25.70;99.90
19972;DHT22;10147;16.402;102.848;2023-03-11T19:00:30;25.70;99.90
19972;DHT22;10147;16.402;102.848;2023-03-11T19:03:02;25.70;99.90
19972;DHT22;10147;16.402;102.848;2023-03-11T19:05:33;25.60;99.90
19972;DHT22;10147;16.402;102.848;2023-03-11T19:08:03;25.60;99.90
19972;DHT22;10147;16.402;102.848;2023-03-11T19:10:34;25.60;99.90
19972;DHT22;10147;16.402;102.848;2023-03-11T19:13:07;25.60;99.90
19972;DHT22;10147;16.402;102.848;2023-03-11T19:15:40;25.50;99.90
19972;DHT22;10147;16.402;102.848;2023-03-11T19:18:11;25.60;99.90
19972;DHT22;10147;16.402;102.848;2023-03-11T19:20:44;25.60;99.90
19972;DHT22;10147;16.402;102.848;2023-03-11T19:23:14;25.50;99.90
19972;DHT22;10147;16.402;102.848;2023-03-11T19:25:47;25.50;99.90
19972;DHT22;10147;16.402;102.848;2023-03-11T19:28:30;25.40;99.90
19972;DHT22;10147;16.402;102.848;2023-03-11T19:31:00;25.40;99.90
19972;DHT22;10147;16.402;102.848;2023-03-11T19:33:31;25.40;99.90
19972;DHT22;10147;16.402;102.848;2023-03-11T19:36:03;25.40;99.90
19972;DHT22;10147;16.402;102.848;2023-03-11T19:38:34;25.30;99.90
19972;DHT22;10147;16.402;102.848;2023-03-11T19:41:08;25.20;99.90
19972;DHT22;10147;16.402;102.848;2023-03-11T19:43:39;25.20;99.90
19972;DHT22;10147;16.402;102.848;2023-03-11T19:46:15;25.20;99.90
19972;DHT22;10147;16.402;102.848;2023-03-11T19:48:45;25.10;99.90
19972;DHT22;10147;16.402;102.848;2023-03-11T19:51:16;25.10;99.90
19972;DHT22;10147;16.402;102.848;2023-03-11T19:53:47;25.10;99.90
19972;DHT22;10147;16.402;102.848;2023-03-11T19:56:18;25.10;99.90
19972;DHT22;10147;16.402;102.848;2023-03-11T19:58:49;25.00;99.90
19972;DHT22;10147;16.402;102.848;2023-03-11T20:01:20;25.00;99.90
19972;DHT22;10147;16.402;102.848;2023-03-11T20:03:51;25.00;99.90
19972;DHT22;10147;16.402;102.848;2023-03-11T20:06:21;25.10;99.90
19972;DHT22;10147;16.402;102.848;2023-03-11T20:08:56;25.00;99.90
19972;DHT22;10147;16.402;102.848;2023-03-11T20:11:39;24.90;99.90
19972;DHT22;10147;16.402;102.848;2023-03-11T20:14:11;24.90;99.90
19972;DHT22;10147;16.402;102.848;2023-03-11T20:16:42;25.00;99.90
19972;DHT22;10147;16.402;102.848;2023-03-11T20:19:12;25.00;99.90
19972;DHT22;10147;16.402;102.848;2023-03-11T20:21:43;24.90;99.90
19972;DHT22;10147;16.402;102.848;2023-03-11T20:24:13;24.80;99.90
19972;DHT22;10147;16.402;102.848;2023-03-11T20:26:44;24.90;99.90
19972;DHT22;10147;16.402;102.848;2023-03-11T20:29:18;24.90;99.90
19972;DHT22;10147;16.402;102.848;2023-03-11T20:31:49;24.90;99.90
19972;DHT22;10147;16.402;102.848;2023-03-11T20:34:21;24.90;99.90
19972;DHT22;10147;16.402;102.848;2023-03-11T20:36:52;24.90;99.90
19972;DHT22;10147;16.402;102.848;2023-03-11T20:39:23;24.90;99.90
19972;DHT22;10147;16.402;102.848;2023-03-11T20:41:54;24.80;99.90
19972;DHT22;10147;16.402;102.848;2023-03-11T20:44:24;24.80;99.90
19972;DHT22;10147;16.402;102.848;2023-03-11T20:46:56;24.60;99.90
19972;DHT22;10147;16.402;102.848;2023-03-11T20:49:26;24.60;99.90
19972;DHT22;10147;16.402;102.848;2023-03-11T20:51:57;24.50;99.90
19972;DHT22;10147;16.402;102.848;2023-03-11T20:54:28;24.60;99.90
19972;DHT22;10147;16.402;102.848;2023-03-11T20:56:58;24.60;99.90
19972;DHT22;10147;16.402;102.848;2023-03-11T20:59:28;24.60;99.90
19972;DHT22;10147;16.402;102.848;2023-03-11T21:01:59;24.50;99.90
19972;DHT22;10147;16.402;102.848;2023-03-11T21:04:29;24.50;99.90
19972;DHT22;10147;16.402;102.848;2023-03-11T21:06:59;24.30;99.90
19972;DHT22;10147;16.402;102.848;2023-03-11T21:09:31;24.30;99.90
19972;DHT22;10147;16.402;102.848;2023-03-11T21:12:01;24.30;99.90
19972;DHT22;10147;16.402;102.848;2023-03-11T21:14:31;24.40;99.90
19972;DHT22;10147;16.402;102.848;2023-03-11T21:17:01;24.40;99.90
19972;DHT22;10147;16.402;102.848;2023-03-11T21:19:33;24.30;99.90
19972;DHT22;10147;16.402;102.848;2023-03-11T21:22:03;24.20;99.90
19972;DHT22;10147;16.402;102.848;2023-03-11T21:24:35;24.20;99.90
19972;DHT22;10147;16.402;102.848;2023-03-11T21:27:05;24.30;99.90
19972;DHT22;10147;16.402;102.848;2023-03-11T21:29:36;24.30;99.90
19972;DHT22;10147;16.402;102.848;2023-03-11T21:32:07;24.30;99.90
19972;DHT22;10147;16.402;102.848;2023-03-11T21:34:37;24.20;99.90
19972;DHT22;10147;16.402;102.848;2023-03-11T21:37:08;24.10;99.90
19972;DHT22;10147;16.402;102.848;2023-03-11T21:39:38;24.10;99.90
19972;DHT22;10147;16.402;102.848;2023-03-11T21:42:08;24.20;99.90
19972;DHT22;10147;16.402;102.848;2023-03-11T21:44:40;24.20;99.90
19972;DHT22;10147;16.402;102.848;2023-03-11T21:47:12;24.10;99.90
19972;DHT22;10147;16.402;102.848;2023-03-11T21:49:42;24.10;99.90
19972;DHT22;10147;16.402;102.848;2023-03-11T21:52:12;24.10;99.90
19972;DHT22;10147;16.402;102.848;2023-03-11T21:54:43;24.10;99.90
19972;DHT22;10147;16.402;102.848;2023-03-11T21:57:13;24.00;99.90
19972;DHT22;10147;16.402;102.848;2023-03-11T21:59:43;24.00;99.90
19972;DHT22;10147;16.402;102.848;2023-03-11T22:02:15;24.10;99.90
19972;DHT22;10147;16.402;102.848;2023-03-11T22:04:46;24.00;99.90
19972;DHT22;10147;16.402;102.848;2023-03-11T22:07:17;23.90;99.90
19972;DHT22;10147;16.402;102.848;2023-03-11T22:09:47;23.90;99.90
19972;DHT22;10147;16.402;102.848;2023-03-11T22:12:17;23.80;99.90
19972;DHT22;10147;16.402;102.848;2023-03-11T22:14:48;23.80;99.90
19972;DHT22;10147;16.402;102.848;2023-03-11T22:17:18;23.80;99.90
19972;DHT22;10147;16.402;102.848;2023-03-11T22:19:49;23.70;99.90
19972;DHT22;10147;16.402;102.848;2023-03-11T22:22:20;23.70;99.90
19972;DHT22;10147;16.402;102.848;2023-03-11T22:24:51;23.70;99.90
19972;DHT22;10147;16.402;102.848;2023-03-11T22:27:21;23.70;99.90
19972;DHT22;10147;16.402;102.848;2023-03-11T22:29:51;23.70;99.90
19972;DHT22;10147;16.402;102.848;2023-03-11T22:32:22;23.70;99.90
19972;DHT22;10147;16.402;102.848;2023-03-11T22:34:52;23.70;99.90
19972;DHT22;10147;16.402;102.848;2023-03-11T22:37:22;23.60;99.90
19972;DHT22;10147;16.402;102.848;2023-03-11T22:39:53;23.70;99.90
19972;DHT22;10147;16.402;102.848;2023-03-11T22:42:23;23.70;99.90
19972;DHT22;10147;16.402;102.848;2023-03-11T22:44:53;23.70;99.90
19972;DHT22;10147;16.402;102.848;2023-03-11T22:47:24;23.70;99.90
19972;DHT22;10147;16.402;102.848;2023-03-11T22:49:54;23.80;99.90
19972;DHT22;10147;16.402;102.848;2023-03-11T22:52:24;23.80;99.90
19972;DHT22;10147;16.402;102.848;2023-03-11T22:54:54;23.80;99.90
19972;DHT22;10147;16.402;102.848;2023-03-11T22:57:25;23.80;99.90
19972;DHT22;10147;16.402;102.848;2023-03-11T22:59:55;23.90;99.90
19972;DHT22;10147;16.402;102.848;2023-03-11T23:02:26;23.80;99.90
19972;DHT22;10147;16.402;102.848;2023-03-11T23:04:56;23.60;99.90
19972;DHT22;10147;16.402;102.848;2023-03-11T23:07:26;23.70;99.90
19972;DHT22;10147;16.402;102.848;2023-03-11T23:09:57;23.60;99.90
19972;DHT22;10147;16.402;102.848;2023-03-11T23:12:28;23.60;99.90
19972;DHT22;10147;16.402;102.848;2023-03-11T23:14:58;23.60;99.90
19972;DHT22;10147;16.402;102.848;2023-03-11T23:17:29;23.50;99.90
19972;DHT22;10147;16.402;102.848;2023-03-11T23:19:59;23.70;99.90
19972;DHT22;10147;16.402;102.848;2023-03-11T23:22:33;23.60;99.90
19972;DHT22;10147;16.402;102.848;2023-03-11T23:25:05;23.70;99.90
19972;DHT22;10147;16.402;102.848;2023-03-11T23:27:36;23.50;99.90
19972;DHT22;10147;16.402;102.848;2023-03-11T23:30:08;23.40;99.90
19972;DHT22;10147;16.402;102.848;2023-03-11T23:32:42;23.30;99.90
19972;DHT22;10147;16.402;102.848;2023-03-11T23:35:12;23.40;99.90
19972;DHT22;10147;16.402;102.848;2023-03-11T23:37:45;23.40;99.90
19972;DHT22;10147;16.402;102.848;2023-03-11T23:40:17;23.50;99.90
19972;DHT22;10147;16.402;102.848;2023-03-11T23:42:47;23.60;99.90
19972;DHT22;10147;16.402;102.848;2023-03-11T23:45:19;23.70;99.90
19972;DHT22;10147;16.402;102.848;2023-03-11T23:47:49;23.70;99.90
19972;DHT22;10147;16.402;102.848;2023-03-11T23:50:20;23.70;99.90
19972;DHT22;10147;16.402;102.848;2023-03-11T23:52:50;23.70;99.90
19972;DHT22;10147;16.402;102.848;2023-03-11T23:55:21;23.70;99.90
19972;DHT22;10147;16.402;102.848;2023-03-11T23:57:52;23.80;99.90
